createdAt,value
2018-06-20T00:00:59.684Z,21.2
2018-06-20T00:02:00.853Z,21.1
2018-06-20T00:03:01.988Z,21.1
2018-06-20T00:04:05.406Z,21.1
2018-06-20T00:05:06.754Z,21.1
2018-06-20T00:06:07.962Z,21.1
2018-06-20T00:07:09.086Z,21.1
2018-06-20T00:08:10.236Z,21
2018-06-20T00:09:11.374Z,20.9
2018-06-20T00:10:12.495Z,21
2018-06-20T00:11:13.727Z,21
2018-06-20T00:12:14.870Z,20.9
2018-06-20T00:13:15.994Z,20.9
2018-06-20T00:14:17.129Z,21
2018-06-20T00:15:18.260Z,20.9
2018-06-20T00:16:19.458Z,20.9
2018-06-20T00:17:20.716Z,20.9
2018-06-20T00:18:21.884Z,20.8
2018-06-20T00:19:23.005Z,20.9
2018-06-20T00:20:24.168Z,20.9
2018-06-20T00:21:25.332Z,20.9
2018-06-20T00:22:26.469Z,20.8
2018-06-20T00:23:27.611Z,20.8
2018-06-20T00:24:28.831Z,20.8
2018-06-20T00:25:29.995Z,20.8
2018-06-20T00:26:31.190Z,20.7
2018-06-20T00:27:32.382Z,20.7
2018-06-20T00:28:33.512Z,20.7
2018-06-20T00:29:34.657Z,20.6
2018-06-20T00:30:35.793Z,20.6
2018-06-20T00:31:36.981Z,20.6
2018-06-20T00:32:38.182Z,20.6
2018-06-20T00:33:39.276Z,20.6
2018-06-20T00:34:40.452Z,20.5
2018-06-20T00:35:41.579Z,20.5
2018-06-20T00:36:42.734Z,20.5
2018-06-20T00:37:43.923Z,20.4
2018-06-20T00:38:45.064Z,20.5
2018-06-20T00:39:46.189Z,20.3
2018-06-20T00:40:47.448Z,20.5
2018-06-20T00:41:48.614Z,20.4
2018-06-20T00:42:49.765Z,20.4
2018-06-20T00:43:50.905Z,20.4
2018-06-20T00:44:52.074Z,20.4
2018-06-20T00:45:53.212Z,20.4
2018-06-20T00:46:54.477Z,20.4
2018-06-20T00:47:55.616Z,20.3
2018-06-20T00:48:56.769Z,20.3
2018-06-20T00:49:58.188Z,20.2
2018-06-20T00:50:59.349Z,20.2
2018-06-20T00:52:00.556Z,20.3
2018-06-20T00:53:01.718Z,20.3
2018-06-20T00:54:02.880Z,20.3
2018-06-20T00:55:04.111Z,20.2
2018-06-20T00:56:05.341Z,20.1
2018-06-20T00:57:06.513Z,20.1
2018-06-20T00:58:07.738Z,20.2
2018-06-20T00:59:08.910Z,20.1
2018-06-20T01:00:10.072Z,20.2
2018-06-20T01:01:11.193Z,20.1
2018-06-20T01:02:12.537Z,20.1
2018-06-20T01:03:13.692Z,20
2018-06-20T01:04:14.831Z,20.1
2018-06-20T01:05:15.965Z,20.1
2018-06-20T01:06:17.381Z,20.1
2018-06-20T01:07:18.565Z,20
2018-06-20T01:08:19.726Z,20
2018-06-20T01:09:20.853Z,20
2018-06-20T01:10:21.980Z,20
2018-06-20T01:11:23.108Z,20
2018-06-20T01:12:24.289Z,19.9
2018-06-20T01:13:25.555Z,20
2018-06-20T01:14:26.757Z,19.9
2018-06-20T01:15:27.908Z,19.9
2018-06-20T01:16:29.027Z,19.9
2018-06-20T01:17:30.217Z,19.8
2018-06-20T01:18:31.345Z,19.8
2018-06-20T01:19:32.483Z,19.8
2018-06-20T01:20:33.603Z,19.8
2018-06-20T01:21:34.762Z,19.7
2018-06-20T01:22:35.946Z,19.7
2018-06-20T01:23:37.068Z,19.7
2018-06-20T01:24:38.224Z,19.7
2018-06-20T01:25:39.358Z,19.7
2018-06-20T01:26:40.505Z,19.7
2018-06-20T01:27:41.834Z,19.6
2018-06-20T01:28:45.534Z,19.6
2018-06-20T01:29:46.656Z,19.6
2018-06-20T01:30:47.809Z,19.6
2018-06-20T01:31:48.953Z,19.5
2018-06-20T01:32:50.155Z,19.5
2018-06-20T01:33:51.288Z,19.5
2018-06-20T01:34:52.476Z,19.3
2018-06-20T01:35:53.639Z,19.5
2018-06-20T01:36:54.827Z,19.5
2018-06-20T01:37:56.037Z,19.3
2018-06-20T01:38:57.226Z,19.4
2018-06-20T01:39:58.378Z,19.4
2018-06-20T01:40:59.537Z,19.4
2018-06-20T01:42:00.691Z,19.4
2018-06-20T01:43:01.947Z,19.4
2018-06-20T01:44:03.070Z,19.3
2018-06-20T01:45:04.229Z,19.3
2018-06-20T01:46:05.355Z,19.3
2018-06-20T01:47:06.501Z,19.3
2018-06-20T01:48:07.829Z,19.3
2018-06-20T01:49:08.965Z,19.4
2018-06-20T01:50:10.100Z,19.3
2018-06-20T01:51:11.236Z,19.3
2018-06-20T01:52:12.385Z,19.3
2018-06-20T01:53:13.573Z,19.3
2018-06-20T01:54:14.723Z,19.3
2018-06-20T01:55:15.893Z,19.3
2018-06-20T01:56:17.039Z,19.3
2018-06-20T01:57:18.211Z,19.3
2018-06-20T01:58:19.426Z,19.3
2018-06-20T01:59:20.605Z,19.3
2018-06-20T02:00:21.775Z,19.3
2018-06-20T02:01:22.933Z,19.3
2018-06-20T02:02:24.118Z,19.3
2018-06-20T02:03:25.308Z,19.3
2018-06-20T02:04:26.453Z,19.3
2018-06-20T02:05:27.585Z,19.3
2018-06-20T02:06:28.728Z,19.3
2018-06-20T02:07:29.865Z,19.3
2018-06-20T02:08:31.029Z,19.2
2018-06-20T02:09:32.177Z,19.2
2018-06-20T02:10:33.360Z,19.2
2018-06-20T02:11:34.702Z,19.2
2018-06-20T02:12:35.804Z,19.2
2018-06-20T02:13:36.962Z,19.2
2018-06-20T02:14:38.106Z,19.1
2018-06-20T02:15:39.624Z,19.3
2018-06-20T02:16:41.291Z,19.3
2018-06-20T02:17:45.448Z,19.3
2018-06-20T02:18:46.686Z,19.2
2018-06-20T02:19:47.818Z,19.3
2018-06-20T02:20:48.948Z,19.3
2018-06-20T02:21:50.083Z,19.3
2018-06-20T02:22:51.310Z,19.2
2018-06-20T02:23:52.526Z,19.3
2018-06-20T02:24:53.683Z,19.3
2018-06-20T02:25:55.041Z,19.1
2018-06-20T02:26:56.310Z,19.3
2018-06-20T02:27:57.489Z,19.3
2018-06-20T02:28:58.669Z,19.3
2018-06-20T02:29:59.847Z,19.3
2018-06-20T02:31:01.018Z,19.3
2018-06-20T02:32:02.187Z,19.3
2018-06-20T02:33:03.330Z,19.2
2018-06-20T02:34:04.558Z,19.2
2018-06-20T02:35:05.684Z,19.2
2018-06-20T02:36:07.054Z,19.2
2018-06-20T02:37:08.378Z,19.2
2018-06-20T02:38:09.518Z,19.1
2018-06-20T02:39:10.695Z,19.2
2018-06-20T02:40:11.875Z,19.3
2018-06-20T02:41:13.048Z,19.3
2018-06-20T02:42:14.173Z,19.2
2018-06-20T02:43:15.325Z,19.3
2018-06-20T02:44:16.507Z,19.3
2018-06-20T02:45:17.652Z,19.3
2018-06-20T02:46:20.128Z,19.4
2018-06-20T02:47:21.248Z,19.3
2018-06-20T02:48:22.383Z,19.2
2018-06-20T02:49:23.586Z,19.3
2018-06-20T02:50:24.713Z,19.3
2018-06-20T02:51:25.862Z,19.4
2018-06-20T02:52:27.022Z,19.4
2018-06-20T02:53:28.136Z,19.4
2018-06-20T02:54:29.309Z,19.4
2018-06-20T02:55:30.453Z,19.4
2018-06-20T02:56:31.598Z,19.4
2018-06-20T02:57:32.771Z,19.4
2018-06-20T02:58:33.897Z,19.5
2018-06-20T02:59:35.056Z,19.4
2018-06-20T03:00:36.176Z,19.5
2018-06-20T03:01:37.332Z,19.5
2018-06-20T03:02:38.455Z,19.4
2018-06-20T03:03:40.538Z,19.4
2018-06-20T03:04:44.173Z,19.5
2018-06-20T03:05:45.293Z,19.5
2018-06-20T03:06:46.740Z,19.4
2018-06-20T03:07:50.072Z,19.5
2018-06-20T03:08:51.197Z,19.5
2018-06-20T03:09:52.433Z,19.5
2018-06-20T03:10:53.564Z,19.5
2018-06-20T03:11:54.708Z,19.5
2018-06-20T03:12:55.830Z,19.5
2018-06-20T03:13:59.952Z,19.5
2018-06-20T03:15:01.192Z,19.5
2018-06-20T03:16:02.540Z,19.5
2018-06-20T03:17:04.373Z,19.5
2018-06-20T03:18:05.556Z,19.6
2018-06-20T03:19:06.696Z,19.5
2018-06-20T03:20:07.905Z,19.6
2018-06-20T03:21:09.352Z,19.5
2018-06-20T03:22:10.476Z,19.5
2018-06-20T03:23:11.641Z,19.5
2018-06-20T03:24:12.852Z,19.5
2018-06-20T03:25:14.004Z,19.5
2018-06-20T03:26:15.115Z,19.5
2018-06-20T03:27:16.300Z,19.5
2018-06-20T03:28:17.415Z,19.5
2018-06-20T03:29:18.567Z,19.5
2018-06-20T03:30:19.776Z,19.5
2018-06-20T03:31:21.032Z,19.4
2018-06-20T03:32:22.413Z,19.4
2018-06-20T03:33:23.548Z,19.5
2018-06-20T03:34:24.681Z,19.5
2018-06-20T03:35:25.869Z,19.5
2018-06-20T03:36:26.988Z,19.5
2018-06-20T03:37:28.101Z,19.5
2018-06-20T03:38:29.237Z,19.5
2018-06-20T03:39:30.373Z,19.5
2018-06-20T03:40:31.540Z,19.5
2018-06-20T03:41:32.699Z,19.5
2018-06-20T03:42:33.844Z,19.5
2018-06-20T03:43:34.977Z,19.6
2018-06-20T03:44:36.125Z,19.6
2018-06-20T03:45:37.294Z,19.5
2018-06-20T03:46:38.456Z,19.6
2018-06-20T03:47:39.605Z,19.6
2018-06-20T03:48:40.742Z,19.6
2018-06-20T03:49:41.902Z,19.5
2018-06-20T03:50:43.167Z,19.6
2018-06-20T03:51:44.316Z,19.6
2018-06-20T03:52:45.454Z,19.6
2018-06-20T03:53:46.598Z,19.6
2018-06-20T03:54:47.728Z,19.6
2018-06-20T03:55:48.893Z,19.7
2018-06-20T03:56:50.012Z,19.6
2018-06-20T03:57:51.149Z,19.6
2018-06-20T03:58:52.269Z,19.6
2018-06-20T03:59:53.400Z,19.6
2018-06-20T04:00:54.578Z,19.6
2018-06-20T04:01:55.716Z,19.6
2018-06-20T04:02:56.885Z,19.7
2018-06-20T04:03:58.001Z,19.7
2018-06-20T04:04:59.148Z,19.7
2018-06-20T04:06:00.369Z,19.7
2018-06-20T04:07:01.498Z,19.7
2018-06-20T04:08:02.668Z,19.7
2018-06-20T04:09:03.781Z,19.7
2018-06-20T04:10:04.925Z,19.7
2018-06-20T04:11:06.141Z,19.8
2018-06-20T04:12:07.346Z,19.8
2018-06-20T04:13:11.383Z,19.7
2018-06-20T04:14:12.517Z,19.8
2018-06-20T04:15:13.740Z,19.8
2018-06-20T04:16:14.916Z,19.8
2018-06-20T04:17:16.061Z,19.8
2018-06-20T04:18:17.187Z,19.8
2018-06-20T04:19:18.338Z,19.9
2018-06-20T04:20:19.484Z,19.9
2018-06-20T04:21:20.684Z,19.9
2018-06-20T04:22:21.884Z,19.9
2018-06-20T04:23:23.103Z,19.9
2018-06-20T04:24:24.236Z,19.9
2018-06-20T04:25:25.408Z,19.9
2018-06-20T04:26:26.848Z,20
2018-06-20T04:27:29.040Z,20
2018-06-20T04:28:30.313Z,20
2018-06-20T04:29:31.472Z,20
2018-06-20T04:30:32.634Z,20
2018-06-20T04:31:33.845Z,20
2018-06-20T04:32:34.962Z,20
2018-06-20T04:33:36.099Z,20.1
2018-06-20T04:34:37.350Z,20.1
2018-06-20T04:35:38.396Z,20.1
2018-06-20T04:36:39.648Z,20.1
2018-06-20T04:37:40.776Z,20.1
2018-06-20T04:38:41.920Z,20.1
2018-06-20T04:39:43.064Z,20.2
2018-06-20T04:40:44.219Z,20.1
2018-06-20T04:41:45.422Z,20.2
2018-06-20T04:42:46.569Z,20.2
2018-06-20T04:43:47.729Z,20.2
2018-06-20T04:44:48.879Z,20.3
2018-06-20T04:45:50.014Z,20.3
2018-06-20T04:46:51.201Z,20.3
2018-06-20T04:47:52.398Z,20.3
2018-06-20T04:48:53.539Z,20.3
2018-06-20T04:49:54.677Z,20.3
2018-06-20T04:50:55.859Z,20.3
2018-06-20T04:51:57.576Z,20.4
2018-06-20T04:52:58.710Z,20.4
2018-06-20T04:53:59.835Z,20.4
2018-06-20T04:55:00.995Z,20.3
2018-06-20T04:56:02.116Z,20.5
2018-06-20T04:57:03.309Z,20.5
2018-06-20T04:58:04.425Z,20.5
2018-06-20T04:59:05.585Z,20.5
2018-06-20T05:00:06.777Z,20.4
2018-06-20T05:01:07.929Z,20.6
2018-06-20T05:02:09.112Z,20.6
2018-06-20T05:03:10.269Z,20.7
2018-06-20T05:04:11.464Z,20.6
2018-06-20T05:05:12.583Z,20.6
2018-06-20T05:06:13.767Z,20.6
2018-06-20T05:07:15.357Z,20.7
2018-06-20T05:08:16.488Z,20.6
2018-06-20T05:09:17.643Z,20.7
2018-06-20T05:10:18.813Z,20.8
2018-06-20T05:11:19.996Z,20.8
2018-06-20T05:12:21.188Z,20.8
2018-06-20T05:13:22.366Z,20.8
2018-06-20T05:14:23.601Z,20.8
2018-06-20T05:15:24.730Z,20.9
2018-06-20T05:16:25.863Z,20.9
2018-06-20T05:17:27.044Z,20.9
2018-06-20T05:18:28.189Z,20.9
2018-06-20T05:19:29.371Z,20.9
2018-06-20T05:20:31.536Z,21
2018-06-20T05:21:32.707Z,21
2018-06-20T05:22:33.945Z,21.1
2018-06-20T05:23:35.049Z,21.1
2018-06-20T05:24:36.183Z,21.2
2018-06-20T05:25:37.379Z,21.1
2018-06-20T05:26:38.519Z,21
2018-06-20T05:27:39.713Z,21.1
2018-06-20T05:28:40.877Z,21.1
2018-06-20T05:29:42.052Z,21.1
2018-06-20T05:30:43.332Z,21.1
2018-06-20T05:31:44.488Z,21.2
2018-06-20T05:32:45.722Z,21.2
2018-06-20T05:33:46.824Z,21.2
2018-06-20T05:34:48.033Z,21.3
2018-06-20T05:35:49.261Z,21.3
2018-06-20T05:36:50.364Z,21.4
2018-06-20T05:37:51.753Z,21.4
2018-06-20T05:38:52.917Z,21.4
2018-06-20T05:39:54.172Z,21.4
2018-06-20T05:40:55.410Z,21.4
2018-06-20T05:41:56.537Z,21.5
2018-06-20T05:42:57.752Z,21.5
2018-06-20T05:43:58.897Z,21.5
2018-06-20T05:45:00.066Z,21.5
2018-06-20T05:46:01.236Z,21.5
2018-06-20T05:47:02.437Z,21.5
2018-06-20T05:48:03.673Z,21.5
2018-06-20T05:49:04.805Z,21.4
2018-06-20T05:50:05.961Z,21.5
2018-06-20T05:51:07.141Z,21.5
2018-06-20T05:52:08.601Z,21.6
2018-06-20T05:53:09.805Z,21.8
2018-06-20T05:54:10.976Z,22
2018-06-20T05:55:12.101Z,22.1
2018-06-20T05:56:13.270Z,22.4
2018-06-20T05:57:14.462Z,22.6
2018-06-20T05:58:15.769Z,22.6
2018-06-20T05:59:16.958Z,22.7
2018-06-20T06:00:18.149Z,22.8
2018-06-20T06:01:19.319Z,22.9
2018-06-20T06:02:20.480Z,23
2018-06-20T06:03:21.652Z,23.1
2018-06-20T06:04:22.782Z,23.1
2018-06-20T06:05:23.956Z,23.1
2018-06-20T06:06:25.106Z,23.3
2018-06-20T06:07:26.292Z,23.4
2018-06-20T06:08:29.897Z,23.5
2018-06-20T06:09:31.064Z,23.5
2018-06-20T06:10:32.200Z,23.5
2018-06-20T06:11:33.412Z,23.7
2018-06-20T06:12:34.562Z,23.9
2018-06-20T06:13:37.712Z,23.8
2018-06-20T06:14:38.932Z,23.8
2018-06-20T06:15:40.068Z,23.8
2018-06-20T06:16:41.258Z,23.8
2018-06-20T06:17:42.395Z,23.8
2018-06-20T06:18:43.595Z,23.8
2018-06-20T06:19:44.794Z,23.8
2018-06-20T06:20:45.948Z,23.6
2018-06-20T06:21:47.084Z,23.7
2018-06-20T06:22:48.209Z,23.7
2018-06-20T06:23:49.415Z,23.5
2018-06-20T06:24:50.569Z,23.6
2018-06-20T06:25:51.747Z,23.9
2018-06-20T06:26:52.926Z,23.8
2018-06-20T06:27:54.173Z,23.8
2018-06-20T06:28:55.400Z,23.8
2018-06-20T06:29:56.610Z,23.8
2018-06-20T06:30:57.791Z,23.8
2018-06-20T06:31:58.929Z,23.9
2018-06-20T06:33:00.078Z,23.9
2018-06-20T06:34:01.421Z,23.9
2018-06-20T06:35:02.616Z,24
2018-06-20T06:36:03.895Z,24.1
2018-06-20T06:37:05.055Z,24.2
2018-06-20T06:38:06.224Z,24.2
2018-06-20T06:39:07.901Z,24.3
2018-06-20T06:40:09.105Z,24.3
2018-06-20T06:41:10.288Z,24.3
2018-06-20T06:42:11.546Z,24.3
2018-06-20T06:43:12.704Z,24.4
2018-06-20T06:44:13.990Z,24.4
2018-06-20T06:45:15.144Z,24.4
2018-06-20T06:46:16.416Z,24.5
2018-06-20T06:47:17.573Z,24.5
2018-06-20T06:48:18.723Z,24.5
2018-06-20T06:49:19.916Z,24.5
2018-06-20T06:50:21.053Z,24.5
2018-06-20T06:51:22.182Z,24.5
2018-06-20T06:52:23.350Z,24.5
2018-06-20T06:53:24.711Z,24.5
2018-06-20T06:54:25.968Z,24.6
2018-06-20T06:55:27.156Z,24.6
2018-06-20T06:56:28.357Z,24.6
2018-06-20T06:57:29.485Z,24.6
2018-06-20T06:58:30.672Z,24.6
2018-06-20T06:59:31.886Z,24.6
2018-06-20T07:00:33.064Z,24.7
2018-06-20T07:01:34.246Z,24.7
2018-06-20T07:02:35.419Z,24.8
2018-06-20T07:03:36.566Z,24.8
2018-06-20T07:04:37.849Z,24.8
2018-06-20T07:05:38.977Z,24.9
2018-06-20T07:06:40.109Z,24.9
2018-06-20T07:07:41.268Z,24.9
2018-06-20T07:08:42.516Z,25
2018-06-20T07:09:43.795Z,25
2018-06-20T07:10:45.009Z,25
2018-06-20T07:11:46.183Z,25
2018-06-20T07:12:47.342Z,25
2018-06-20T07:13:48.495Z,25.1
2018-06-20T07:14:49.703Z,25.1
2018-06-20T07:15:50.891Z,25.1
2018-06-20T07:16:52.069Z,25.1
2018-06-20T07:17:53.284Z,25.2
2018-06-20T07:18:54.444Z,25.2
2018-06-20T07:19:55.715Z,25.2
2018-06-20T07:20:56.924Z,25.2
2018-06-20T07:21:58.210Z,25.3
2018-06-20T07:22:59.461Z,25.3
2018-06-20T07:24:00.618Z,25.3
2018-06-20T07:25:01.863Z,25.2
2018-06-20T07:26:03.045Z,25.3
2018-06-20T07:27:04.273Z,25.4
2018-06-20T07:28:06.905Z,25.4
2018-06-20T07:29:08.696Z,25.4
2018-06-20T07:30:10.482Z,25.4
2018-06-20T07:31:11.668Z,25.5
2018-06-20T07:32:18.522Z,25.4
2018-06-20T07:33:19.705Z,25.5
2018-06-20T07:34:20.936Z,25.5
2018-06-20T07:35:22.188Z,25.5
2018-06-20T07:36:23.325Z,25.5
2018-06-20T07:37:24.516Z,25.5
2018-06-20T07:38:25.689Z,25.6
2018-06-20T07:39:26.852Z,25.5
2018-06-20T07:40:28.575Z,25.5
2018-06-20T07:41:29.751Z,25.6
2018-06-20T07:42:30.925Z,25.7
2018-06-20T07:43:32.101Z,25.7
2018-06-20T07:44:33.293Z,25.7
2018-06-20T07:45:34.572Z,25.7
2018-06-20T07:46:35.729Z,25.7
2018-06-20T07:47:36.893Z,25.7
2018-06-20T07:48:38.141Z,25.7
2018-06-20T07:49:39.319Z,25.8
2018-06-20T07:50:40.517Z,25.8
2018-06-20T07:51:41.642Z,25.8
2018-06-20T07:52:42.821Z,25.8
2018-06-20T07:53:43.997Z,25.8
2018-06-20T07:54:45.142Z,25.9
2018-06-20T07:55:46.380Z,25.8
2018-06-20T07:56:47.548Z,25.9
2018-06-20T07:57:48.696Z,26
2018-06-20T07:58:49.860Z,26
2018-06-20T07:59:51.088Z,26.1
2018-06-20T08:00:52.398Z,26
2018-06-20T08:01:53.463Z,26
2018-06-20T08:02:54.678Z,26
2018-06-20T08:03:55.865Z,26
2018-06-20T08:04:57.022Z,26
2018-06-20T08:05:58.223Z,26.1
2018-06-20T08:06:59.405Z,26
2018-06-20T08:08:00.558Z,26.1
2018-06-20T08:09:01.762Z,26.2
2018-06-20T08:10:02.916Z,26.2
2018-06-20T08:11:04.456Z,26.2
2018-06-20T08:12:05.631Z,26.2
2018-06-20T08:13:06.835Z,26.2
2018-06-20T08:14:07.984Z,26.2
2018-06-20T08:15:09.151Z,26.2
2018-06-20T08:16:10.385Z,26.2
2018-06-20T08:17:11.568Z,26.3
2018-06-20T08:18:12.808Z,26.3
2018-06-20T08:19:14.040Z,26.4
2018-06-20T08:20:15.744Z,26.4
2018-06-20T08:21:16.988Z,26.3
2018-06-20T08:22:18.142Z,26.4
2018-06-20T08:23:19.319Z,26.4
2018-06-20T08:24:20.518Z,26.4
2018-06-20T08:25:21.661Z,26.5
2018-06-20T08:26:26.199Z,26.5
2018-06-20T08:27:27.395Z,26.5
2018-06-20T08:28:28.577Z,26.5
2018-06-20T08:29:29.728Z,26.5
2018-06-20T08:30:30.876Z,26.6
2018-06-20T08:31:32.071Z,26.6
2018-06-20T08:32:33.256Z,26.6
2018-06-20T08:33:34.528Z,26.6
2018-06-20T08:34:35.926Z,26.6
2018-06-20T08:35:37.078Z,26.7
2018-06-20T08:36:38.250Z,26.7
2018-06-20T08:37:39.389Z,26.7
2018-06-20T08:38:40.560Z,26.8
2018-06-20T08:39:41.721Z,26.8
2018-06-20T08:40:42.897Z,26.8
2018-06-20T08:41:44.389Z,26.8
2018-06-20T08:42:45.749Z,26.8
2018-06-20T08:43:46.900Z,26.7
2018-06-20T08:44:48.063Z,26.8
2018-06-20T08:45:49.265Z,26.9
2018-06-20T08:46:50.491Z,26.9
2018-06-20T08:47:51.697Z,26.9
2018-06-20T08:48:52.912Z,26.9
2018-06-20T08:49:54.215Z,26.9
2018-06-20T08:50:55.456Z,27
2018-06-20T08:51:56.668Z,27
2018-06-20T08:53:00.622Z,26.8
2018-06-20T08:54:01.906Z,27
2018-06-20T08:55:03.394Z,27
2018-06-20T08:56:04.768Z,27
2018-06-20T08:57:06.192Z,27.1
2018-06-20T08:58:09.658Z,27.2
2018-06-20T08:59:10.992Z,27.3
2018-06-20T09:00:12.249Z,27.3
2018-06-20T09:01:17.499Z,27.3
2018-06-20T09:02:20.378Z,27.3
2018-06-20T09:03:21.534Z,27.4
2018-06-20T09:04:22.721Z,27.5
2018-06-20T09:05:24.861Z,27.5
2018-06-20T09:06:26.235Z,27.5
2018-06-20T09:07:27.579Z,27.5
2018-06-20T09:08:29.373Z,27.5
2018-06-20T09:09:31.427Z,27.5
2018-06-20T09:10:32.596Z,27.6
2018-06-20T09:11:33.872Z,27.6
2018-06-20T09:12:35.104Z,27.6
2018-06-20T09:13:36.238Z,27.7
2018-06-20T09:14:37.604Z,27.8
2018-06-20T09:15:41.036Z,27.7
2018-06-20T09:16:42.671Z,27.7
2018-06-20T09:17:43.953Z,27.7
2018-06-20T09:18:45.137Z,27.6
2018-06-20T09:19:46.326Z,27.7
2018-06-20T09:20:47.623Z,27.7
2018-06-20T09:21:48.885Z,27.7
2018-06-20T09:22:50.090Z,27.7
2018-06-20T09:23:59.550Z,27.8
2018-06-20T09:25:00.837Z,27.8
2018-06-20T09:26:02.148Z,27.9
2018-06-20T09:27:03.395Z,27.9
2018-06-20T09:28:04.760Z,27.9
2018-06-20T09:29:06.655Z,28
2018-06-20T09:30:10.920Z,27.9
2018-06-20T09:31:19.889Z,28
2018-06-20T09:32:21.450Z,28
2018-06-20T09:33:26.419Z,28.1
2018-06-20T09:34:27.899Z,27.9
2018-06-20T09:35:32.763Z,28.1
2018-06-20T09:36:34.175Z,28.1
2018-06-20T09:37:35.445Z,28.1
2018-06-20T09:38:36.727Z,28
2018-06-20T09:39:38.080Z,28
2018-06-20T09:40:40.519Z,28
2018-06-20T09:41:45.086Z,28.1
2018-06-20T09:42:49.329Z,28.2
2018-06-20T09:43:52.714Z,28.2
2018-06-20T09:44:58.838Z,28.2
2018-06-20T09:46:02.883Z,28.3
2018-06-20T09:47:05.316Z,28.3
2018-06-20T09:48:06.966Z,28.2
2018-06-20T09:49:08.300Z,28.2
2018-06-20T09:50:09.906Z,28.3
2018-06-20T09:51:13.514Z,28.4
2018-06-20T09:52:22.679Z,28.4
2018-06-20T09:53:26.626Z,28.3
2018-06-20T09:54:28.753Z,28.4
2018-06-20T09:55:30.012Z,28.4
2018-06-20T09:56:31.278Z,28.4
2018-06-20T09:57:32.906Z,28.4
2018-06-20T09:58:34.185Z,28.4
2018-06-20T09:59:35.801Z,28.5
2018-06-20T10:00:37.205Z,28.5
2018-06-20T10:01:38.700Z,28.5
2018-06-20T10:02:40.041Z,28.5
2018-06-20T10:03:41.269Z,28.5
2018-06-20T10:04:42.599Z,28.6
2018-06-20T10:05:43.852Z,28.6
2018-06-20T10:06:45.428Z,28.6
2018-06-20T10:07:46.702Z,28.5
2018-06-20T10:08:48.072Z,28.6
2018-06-20T10:09:49.430Z,28.6
2018-06-20T10:10:50.662Z,28.6
2018-06-20T10:11:52.000Z,28.6
2018-06-20T10:12:57.180Z,28.6
2018-06-20T10:13:58.677Z,28.6
2018-06-20T10:15:00.282Z,28.6
2018-06-20T10:16:01.873Z,28.7
2018-06-20T10:17:03.129Z,28.6
2018-06-20T10:18:04.598Z,28.7
2018-06-20T10:19:05.978Z,28.6
2018-06-20T10:20:07.438Z,28.6
2018-06-20T10:21:08.836Z,28.6
2018-06-20T10:22:16.547Z,28.6
2018-06-20T10:23:17.913Z,28.6
2018-06-20T10:24:19.173Z,28.6
2018-06-20T10:25:20.403Z,28.7
2018-06-20T10:26:21.657Z,28.6
2018-06-20T10:27:22.861Z,28.7
2018-06-20T10:28:24.090Z,28.6
2018-06-20T10:29:25.344Z,28.7
2018-06-20T10:30:26.679Z,28.6
2018-06-20T10:31:27.942Z,28.7
2018-06-20T10:32:30.025Z,28.7
2018-06-20T10:33:31.251Z,28.7
2018-06-20T10:34:32.511Z,28.7
2018-06-20T10:35:33.758Z,28.7
2018-06-20T10:36:35.117Z,28.8
2018-06-20T10:37:36.310Z,28.8
2018-06-20T10:38:37.462Z,28.8
2018-06-20T10:39:38.642Z,28.8
2018-06-20T10:40:39.889Z,28.8
2018-06-20T10:41:41.141Z,28.8
2018-06-20T10:42:42.381Z,28.9
2018-06-20T10:43:43.595Z,28.9
2018-06-20T10:44:44.879Z,28.9
2018-06-20T10:45:46.129Z,28.9
2018-06-20T10:46:47.567Z,28.8
2018-06-20T10:47:48.740Z,28.9
2018-06-20T10:48:49.891Z,28.9
2018-06-20T10:49:51.092Z,28.9
2018-06-20T10:50:52.349Z,28.8
2018-06-20T10:51:53.673Z,28.9
2018-06-20T10:52:55.858Z,28.9
2018-06-20T10:53:57.038Z,28.9
2018-06-20T10:54:58.242Z,28.9
2018-06-20T10:55:59.502Z,28.9
2018-06-20T10:57:00.687Z,28.9
2018-06-20T10:58:01.932Z,28.9
2018-06-20T10:59:03.099Z,28.8
2018-06-20T11:00:04.306Z,28.8
2018-06-20T11:01:05.677Z,28.8
2018-06-20T11:02:13.479Z,28.8
2018-06-20T11:03:14.661Z,28.8
2018-06-20T11:04:15.973Z,28.8
2018-06-20T11:05:17.199Z,28.8
2018-06-20T11:06:18.487Z,28.6
2018-06-20T11:07:23.650Z,28.5
2018-06-20T11:08:24.974Z,28.5
2018-06-20T11:09:26.191Z,28.6
2018-06-20T11:10:27.383Z,28.6
2018-06-20T11:11:28.663Z,28.6
2018-06-20T11:12:29.931Z,28.6
2018-06-20T11:13:37.641Z,28.7
2018-06-20T11:14:39.158Z,28.7
2018-06-20T11:15:56.577Z,28.8
2018-06-20T11:16:57.882Z,28.8
2018-06-20T11:17:59.128Z,28.8
2018-06-20T11:19:01.165Z,28.8
2018-06-20T11:20:06.301Z,28.8
2018-06-20T11:21:08.495Z,28.9
2018-06-20T11:22:09.710Z,28.9
2018-06-20T11:23:10.907Z,29
2018-06-20T11:24:12.129Z,29
2018-06-20T11:25:13.335Z,28.9
2018-06-20T11:26:14.496Z,28.9
2018-06-20T11:27:15.756Z,28.9
2018-06-20T11:28:16.919Z,28.9
2018-06-20T11:29:18.104Z,28.9
2018-06-20T11:30:19.316Z,28.9
2018-06-20T11:31:20.579Z,28.9
2018-06-20T11:32:21.826Z,28.9
2018-06-20T11:33:22.975Z,29
2018-06-20T11:34:24.201Z,29
2018-06-20T11:35:25.474Z,29
2018-06-20T11:36:26.713Z,29
2018-06-20T11:37:28.071Z,29
2018-06-20T11:38:29.314Z,28.9
2018-06-20T11:39:30.575Z,29
2018-06-20T11:40:31.713Z,29
2018-06-20T11:41:32.994Z,29
2018-06-20T11:42:34.297Z,28.9
2018-06-20T11:43:35.645Z,28.9
2018-06-20T11:44:36.906Z,28.9
2018-06-20T11:45:38.103Z,29
2018-06-20T11:46:39.357Z,29
2018-06-20T11:47:40.678Z,29
2018-06-20T11:48:41.921Z,29
2018-06-20T11:49:43.245Z,29
2018-06-20T11:50:44.496Z,29
2018-06-20T11:51:45.786Z,29
2018-06-20T11:52:46.987Z,29
2018-06-20T11:53:48.241Z,29
2018-06-20T11:54:49.498Z,29
2018-06-20T11:55:50.751Z,28.9
2018-06-20T11:56:52.006Z,29
2018-06-20T11:57:53.266Z,29
2018-06-20T11:58:54.566Z,29
2018-06-20T11:59:55.817Z,29
2018-06-20T12:00:57.300Z,29
2018-06-20T12:01:58.601Z,28.9
2018-06-20T12:02:59.855Z,29
2018-06-20T12:04:02.222Z,29
2018-06-20T12:05:03.429Z,29
2018-06-20T12:06:04.685Z,29
2018-06-20T12:07:06.037Z,29
2018-06-20T12:08:10.508Z,29
2018-06-20T12:09:12.053Z,29
2018-06-20T12:10:13.273Z,29
2018-06-20T12:11:14.598Z,29
2018-06-20T12:12:15.897Z,28.9
2018-06-20T12:13:17.134Z,29
2018-06-20T12:14:18.463Z,29
2018-06-20T12:15:19.725Z,29
2018-06-20T12:16:21.170Z,28.9
2018-06-20T12:17:22.460Z,29
2018-06-20T12:18:23.743Z,28.9
2018-06-20T12:19:25.142Z,29
2018-06-20T12:20:26.575Z,29
2018-06-20T12:21:29.101Z,29
2018-06-20T12:22:32.814Z,29
2018-06-20T12:23:34.272Z,28.9
2018-06-20T12:24:35.542Z,29
2018-06-20T12:25:36.782Z,28.9
2018-06-20T12:26:37.962Z,29
2018-06-20T12:27:39.147Z,29
2018-06-20T12:28:40.406Z,29
2018-06-20T12:29:41.597Z,28.9
2018-06-20T12:30:42.829Z,28.9
2018-06-20T12:31:43.977Z,28.9
2018-06-20T12:32:47.212Z,28.9
2018-06-20T12:33:48.603Z,29
2018-06-20T12:34:49.806Z,29
2018-06-20T12:35:51.022Z,29
2018-06-20T12:36:52.186Z,29
2018-06-20T12:37:53.420Z,29
2018-06-20T12:38:55.633Z,28.9
2018-06-20T12:39:59.019Z,29
2018-06-20T12:41:00.224Z,29
2018-06-20T12:42:01.361Z,29
2018-06-20T12:43:02.599Z,29
2018-06-20T12:44:03.914Z,29
2018-06-20T12:45:05.084Z,29
2018-06-20T12:46:07.650Z,29
2018-06-20T12:47:08.940Z,28.9
2018-06-20T12:48:10.249Z,29
2018-06-20T12:49:11.704Z,29
2018-06-20T12:50:12.897Z,28.9
2018-06-20T12:51:14.100Z,28.9
2018-06-20T12:52:15.388Z,28.9
2018-06-20T12:53:16.608Z,29
2018-06-20T12:54:17.858Z,29
2018-06-20T12:55:19.047Z,29
2018-06-20T12:56:20.234Z,29
2018-06-20T12:57:21.469Z,29
2018-06-20T12:58:22.793Z,28.9
2018-06-20T12:59:24.085Z,28.9
2018-06-20T13:00:25.245Z,29
2018-06-20T13:01:26.512Z,28.9
2018-06-20T13:02:27.705Z,28.9
2018-06-20T13:03:28.857Z,28.9
2018-06-20T13:04:30.368Z,28.9
2018-06-20T13:05:31.527Z,28.9
2018-06-20T13:06:32.733Z,29
2018-06-20T13:07:38.520Z,29
2018-06-20T13:08:46.088Z,29
2018-06-20T13:09:47.327Z,28.9
2018-06-20T13:10:48.475Z,29
2018-06-20T13:11:49.642Z,28.9
2018-06-20T13:12:50.817Z,28.9
2018-06-20T13:13:51.968Z,28.9
2018-06-20T13:14:53.209Z,29
2018-06-20T13:15:54.406Z,29
2018-06-20T13:16:55.657Z,29
2018-06-20T13:17:56.836Z,29
2018-06-20T13:18:57.988Z,29
2018-06-20T13:19:59.271Z,28.8
2018-06-20T13:21:00.481Z,28.9
2018-06-20T13:22:01.726Z,28.9
2018-06-20T13:23:02.933Z,28.9
2018-06-20T13:24:04.119Z,28.9
2018-06-20T13:25:06.292Z,28.9
2018-06-20T13:26:07.520Z,28.9
2018-06-20T13:27:08.715Z,28.9
2018-06-20T13:28:10.574Z,28.9
2018-06-20T13:29:12.078Z,28.9
2018-06-20T13:30:13.327Z,28.9
2018-06-20T13:31:14.483Z,28.9
2018-06-20T13:32:15.736Z,28.9
2018-06-20T13:33:16.924Z,28.9
2018-06-20T13:34:18.255Z,28.9
2018-06-20T13:35:19.558Z,28.9
2018-06-20T13:36:20.739Z,28.9
2018-06-20T13:37:21.958Z,28.8
2018-06-20T13:38:23.173Z,28.9
2018-06-20T13:39:24.360Z,28.9
2018-06-20T13:40:25.681Z,28.9
2018-06-20T13:41:26.916Z,28.9
2018-06-20T13:42:28.061Z,28.8
2018-06-20T13:43:29.295Z,28.9
2018-06-20T13:44:32.779Z,28.9
2018-06-20T13:45:34.041Z,28.9
2018-06-20T13:46:35.220Z,28.9